Time;durP1;ratioP1;P1;durP2;ratioP2;P2;SDS_P1;SDS_P2;PMS_P1;PMS_P2;Temp;Humidity;BMP_temperature;BMP_pressure;BME280_temperature;BME280_humidity;BME280_pressure;Samples;Min_cycle;Max_cycle;Signal;HPM_P1;HPM_P2
2023/07/17 00:00:48;;;;;;;;;;;;;;;20.86;33.32;100679.03;4903406;28;98458;-75
2023/07/17 00:03:15;;;;;;;;;;;;;;;20.83;33.19;100675.84;4892524;28;99055;-70
2023/07/17 00:05:41;;;;;;;;;;;;;;;20.82;33.19;100674.22;4925690;28;98317;-70
2023/07/17 00:08:09;;;;;;;;;;;;;;;20.79;33.30;100680.38;4903648;28;99919;-75
2023/07/17 00:10:37;;;;;;;;;;;;;;;20.76;33.24;100678.31;4907047;28;98799;-75
2023/07/17 00:13:04;;;;;;;;;;;;;;;20.73;33.32;100673.47;4923059;28;100419;-75
2023/07/17 00:15:30;;;;;;;;;;;;;;;20.70;33.33;100676.88;4901727;28;98077;-75
2023/07/17 00:17:57;;;;;;;;;;;;;;;20.66;33.36;100675.13;4926033;28;98263;-70
2023/07/17 00:20:24;;;;;;;;;;;;;;;20.61;33.22;100675.31;4928259;28;98364;-71
2023/07/17 00:22:51;;;;;;;;;;;;;;;20.56;33.44;100676.31;4923785;28;100175;-75
2023/07/17 00:25:17;;;;;;;;;;;;;;;20.51;33.42;100679.22;4893834;28;98467;-75
2023/07/17 00:27:44;;;;;;;;;;;;;;;20.47;33.30;100680.97;4910465;28;98015;-74
2023/07/17 00:30:10;;;;;;;;;;;;;;;20.43;33.32;100674.56;4909692;28;97932;-70
2023/07/17 00:32:37;;;;;;;;;;;;;;;20.39;33.36;100676.34;4908219;28;97951;-71
2023/07/17 00:35:03;;;;;;;;;;;;;;;20.35;33.51;100673.47;4909800;28;99532;-75
2023/07/17 00:37:29;;;;;;;;;;;;;;;20.33;33.46;100678.47;4888059;28;98727;-75
2023/07/17 00:39:57;;;;;;;;;;;;;;;20.29;33.36;100672.06;4894681;28;97966;-71
2023/07/17 00:42:23;;;;;;;;;;;;;;;20.27;33.41;100668.81;4927726;28;98326;-74
2023/07/17 00:44:52;;;;;;;;;;;;;;;20.25;33.45;100662.88;4909048;28;98556;-75
2023/07/17 00:47:19;;;;;;;;;;;;;;;20.23;33.49;100665.13;4909374;28;98070;-71
2023/07/17 00:49:48;;;;;;;;;;;;;;;20.22;33.48;100666.28;4921069;28;98470;-71
2023/07/17 00:52:15;;;;;;;;;;;;;;;20.20;33.67;100655.66;4907514;28;98084;-76
2023/07/17 00:54:41;;;;;;;;;;;;;;;20.18;33.37;100663.38;4924697;28;98422;-71
2023/07/17 00:57:08;;;;;;;;;;;;;;;20.18;33.56;100657.91;4927739;28;97980;-75
2023/07/17 00:59:35;;;;;;;;;;;;;;;20.17;33.44;100661.78;4886989;28;98233;-75
2023/07/17 01:02:02;;;;;;;;;;;;;;;20.17;33.61;100663.72;4909358;28;98347;-71
2023/07/17 01:04:29;;;;;;;;;;;;;;;20.16;33.56;100659.34;4909507;28;98165;-75
2023/07/17 01:06:56;;;;;;;;;;;;;;;20.14;33.56;100669.84;4924366;28;100063;-75
2023/07/17 01:09:22;;;;;;;;;;;;;;;20.13;33.45;100676.44;4925090;28;98028;-71
2023/07/17 01:11:49;;;;;;;;;;;;;;;20.11;33.50;100661.16;4888227;28;98245;-75
2023/07/17 01:14:19;;;;;;;;;;;;;;;20.10;33.64;100659.53;4925149;28;98319;-71
2023/07/17 01:16:48;;;;;;;;;;;;;;;20.08;33.53;100661.81;4895342;28;98361;-71
2023/07/17 01:19:15;;;;;;;;;;;;;;;20.06;33.63;100661.31;4907615;28;98679;-75
2023/07/17 01:21:53;;;;;;;;;;;;;;;20.03;33.50;100661.97;4907489;28;98731;-71
2023/07/17 01:24:20;;;;;;;;;;;;;;;20.01;33.65;100666.97;4924926;28;99280;-72
2023/07/17 01:26:47;;;;;;;;;;;;;;;19.99;33.44;100665.69;4906540;28;98068;-73
2023/07/17 01:29:15;;;;;;;;;;;;;;;19.97;33.51;100655.09;4908706;28;98013;-72
2023/07/17 01:31:42;;;;;;;;;;;;;;;19.95;33.55;100657.34;4904678;28;98361;-75
2023/07/17 01:34:09;;;;;;;;;;;;;;;19.95;33.57;100662.81;4920872;28;99041;-71
2023/07/17 01:36:36;;;;;;;;;;;;;;;19.95;33.53;100671.00;4891270;28;98439;-71
2023/07/17 01:39:03;;;;;;;;;;;;;;;19.93;33.53;100658.81;4902104;28;98682;-75
2023/07/17 01:41:29;;;;;;;;;;;;;;;19.89;33.58;100672.31;4906417;28;99421;-71
2023/07/17 01:43:56;;;;;;;;;;;;;;;19.88;33.53;100673.44;4905256;28;99362;-75
2023/07/17 01:46:22;;;;;;;;;;;;;;;19.88;33.56;100670.69;4911114;28;98452;-72
2023/07/17 01:48:50;;;;;;;;;;;;;;;19.91;33.72;100672.78;4906415;28;98019;-72
2023/07/17 01:51:17;;;;;;;;;;;;;;;19.92;33.80;100665.38;4903433;28;98289;-74
2023/07/17 01:53:44;;;;;;;;;;;;;;;19.93;33.69;100683.41;4889202;28;98337;-75
2023/07/17 01:56:10;;;;;;;;;;;;;;;19.92;33.66;100679.84;4887847;28;98010;-75
2023/07/17 01:58:37;;;;;;;;;;;;;;;19.90;33.68;100675.84;4900263;28;98326;-74
2023/07/17 02:01:04;;;;;;;;;;;;;;;19.89;33.83;100677.00;4908131;28;98065;-71
2023/07/17 02:03:32;;;;;;;;;;;;;;;19.89;33.87;100690.66;4906886;28;97961;-71
2023/07/17 02:05:59;;;;;;;;;;;;;;;19.89;33.62;100694.22;4915490;28;98625;-73
2023/07/17 02:08:26;;;;;;;;;;;;;;;19.90;33.68;100698.53;4879295;28;98543;-71
2023/07/17 02:10:54;;;;;;;;;;;;;;;19.88;33.84;100691.78;4906196;28;97993;-74
2023/07/17 02:13:21;;;;;;;;;;;;;;;19.84;33.79;100695.16;4901678;28;98898;-71
2023/07/17 02:15:51;;;;;;;;;;;;;;;19.83;33.72;100695.50;4902449;28;98155;-72
2023/07/17 02:18:19;;;;;;;;;;;;;;;19.83;33.90;100703.69;4916569;28;98162;-75
2023/07/17 02:20:48;;;;;;;;;;;;;;;19.84;33.62;100708.03;4925096;28;98160;-71
2023/07/17 02:23:14;;;;;;;;;;;;;;;19.84;33.76;100708.81;4921104;28;98155;-71
2023/07/17 02:25:42;;;;;;;;;;;;;;;19.83;33.76;100701.75;4892309;28;98926;-75
2023/07/17 02:28:09;;;;;;;;;;;;;;;19.80;33.79;100702.41;4909788;28;98432;-71
2023/07/17 02:30:36;;;;;;;;;;;;;;;19.77;33.80;100705.00;4902279;28;98008;-71
2023/07/17 02:33:03;;;;;;;;;;;;;;;19.77;33.82;100707.75;4882539;28;98424;-74
2023/07/17 02:35:30;;;;;;;;;;;;;;;19.77;33.86;100707.75;4917842;28;101247;-74
2023/07/17 02:37:56;;;;;;;;;;;;;;;19.76;33.92;100706.09;4903246;28;98167;-71
2023/07/17 02:40:23;;;;;;;;;;;;;;;19.76;33.80;100715.09;4918928;28;100188;-74
2023/07/17 02:42:50;;;;;;;;;;;;;;;19.79;33.95;100721.88;4880743;28;98053;-71
2023/07/17 02:45:17;;;;;;;;;;;;;;;19.82;33.81;100716.56;4897860;28;98213;-74
2023/07/17 02:47:43;;;;;;;;;;;;;;;19.87;33.99;100721.06;4879357;28;98363;-71
2023/07/17 02:50:09;;;;;;;;;;;;;;;19.90;33.82;100725.09;4903245;28;108214;-71
2023/07/17 02:52:36;;;;;;;;;;;;;;;19.91;33.90;100729.44;4900353;28;99035;-71
2023/07/17 02:55:06;;;;;;;;;;;;;;;19.93;33.99;100719.78;4918887;28;98182;-74
2023/07/17 02:57:34;;;;;;;;;;;;;;;19.98;33.98;100718.81;4919158;28;98655;-74
2023/07/17 03:00:09;;;;;;;;;;;;;;;20.00;33.91;100711.88;4917329;28;102269;-71
2023/07/17 03:02:37;;;;;;;;;;;;;;;20.03;33.88;100708.47;4904103;28;98005;-75
2023/07/17 03:05:09;;;;;;;;;;;;;;;20.07;33.86;100712.19;4919499;28;98133;-74
2023/07/17 03:07:38;;;;;;;;;;;;;;;20.08;33.97;100718.44;4888841;28;98031;-71
2023/07/17 03:10:07;;;;;;;;;;;;;;;20.05;33.77;100716.38;4914387;28;115765;-72
2023/07/17 03:12:33;;;;;;;;;;;;;;;20.05;33.87;100721.84;4878908;28;98366;-74
2023/07/17 03:14:59;;;;;;;;;;;;;;;20.04;34.03;100707.38;4901551;28;98778;-71
2023/07/17 03:17:26;;;;;;;;;;;;;;;20.05;34.07;100708.97;4918214;28;98265;-71
2023/07/17 03:19:52;;;;;;;;;;;;;;;20.09;34.09;100720.06;4917112;28;98373;-74
2023/07/17 03:22:19;;;;;;;;;;;;;;;20.11;33.91;100709.59;4919449;28;98015;-74
2023/07/17 03:24:50;;;;;;;;;;;;;;;20.14;34.10;100719.09;4904048;28;98257;-74
2023/07/17 03:27:17;;;;;;;;;;;;;;;20.13;34.11;100717.50;4884723;28;98036;-71
2023/07/17 03:29:46;;;;;;;;;;;;;;;20.11;34.08;100717.81;4903177;28;98026;-71
2023/07/17 03:32:12;;;;;;;;;;;;;;;20.09;33.93;100720.88;4914170;28;98084;-71
2023/07/17 03:34:39;;;;;;;;;;;;;;;20.07;33.90;100720.38;4914886;28;98131;-74
2023/07/17 03:37:05;;;;;;;;;;;;;;;20.06;33.93;100715.25;4880896;28;99557;-70
2023/07/17 03:39:32;;;;;;;;;;;;;;;20.05;34.02;100719.91;4898485;28;98134;-75
2023/07/17 03:41:59;;;;;;;;;;;;;;;20.02;34.19;100727.97;4863644;28;98275;-71
2023/07/17 03:44:25;;;;;;;;;;;;;;;20.02;33.97;100725.22;4900271;28;98366;-70
2023/07/17 03:46:54;;;;;;;;;;;;;;;20.03;34.04;100711.22;4900929;28;98195;-71
2023/07/17 03:49:21;;;;;;;;;;;;;;;20.04;33.98;100718.31;4864627;28;101776;-74
2023/07/17 03:51:48;;;;;;;;;;;;;;;20.06;34.21;100717.97;4859709;28;98592;-76
2023/07/17 03:54:15;;;;;;;;;;;;;;;20.08;34.13;100723.91;4888375;28;98083;-74
2023/07/17 03:56:42;;;;;;;;;;;;;;;20.11;34.11;100726.81;4901373;28;98171;-74
2023/07/17 03:59:09;;;;;;;;;;;;;;;20.15;33.93;100729.69;4887359;28;98416;-74
2023/07/17 04:01:38;;;;;;;;;;;;;;;20.21;34.06;100733.09;4877860;28;99919;-71
2023/07/17 04:04:06;;;;;;;;;;;;;;;20.25;33.87;100720.34;4908925;28;97846;-71
2023/07/17 04:06:33;;;;;;;;;;;;;;;20.32;34.04;100723.41;4908888;28;98192;-74
2023/07/17 04:09:01;;;;;;;;;;;;;;;20.36;33.87;100727.09;4892563;28;100203;-70
2023/07/17 04:11:27;;;;;;;;;;;;;;;20.40;33.98;100727.25;4891483;28;97971;-74
2023/07/17 04:13:55;;;;;;;;;;;;;;;20.40;33.89;100732.72;4867115;28;98512;-70
2023/07/17 04:16:25;;;;;;;;;;;;;;;20.39;34.00;100740.09;4889145;28;101516;-69
2023/07/17 04:18:51;;;;;;;;;;;;;;;20.42;34.00;100733.19;4890199;28;99331;-71
2023/07/17 04:21:18;;;;;;;;;;;;;;;20.45;33.97;100733.34;4889194;28;98005;-75
2023/07/17 04:23:48;;;;;;;;;;;;;;;20.49;34.01;100736.25;4910460;28;98200;-75
2023/07/17 04:26:16;;;;;;;;;;;;;;;20.54;33.96;100739.59;4888531;28;99442;-71
2023/07/17 04:28:43;;;;;;;;;;;;;;;20.57;33.88;100732.69;4889129;28;98015;-76
2023/07/17 04:31:10;;;;;;;;;;;;;;;20.61;33.80;100732.81;4890324;28;98010;-71
2023/07/17 04:33:37;;;;;;;;;;;;;;;20.66;33.86;100725.22;4889207;28;98183;-71
2023/07/17 04:36:07;;;;;;;;;;;;;;;20.72;33.73;100726.66;4888906;28;98575;-72
2023/07/17 04:38:33;;;;;;;;;;;;;;;20.79;33.83;100729.69;4870653;28;98548;-75
2023/07/17 04:41:00;;;;;;;;;;;;;;;20.82;33.71;100726.28;4888354;28;98398;-71
2023/07/17 04:43:26;;;;;;;;;;;;;;;20.81;33.87;100734.81;4902223;28;97822;-75
2023/07/17 04:45:53;;;;;;;;;;;;;;;20.83;33.90;100738.06;4888358;28;98300;-75
2023/07/17 04:48:23;;;;;;;;;;;;;;;20.87;33.91;100735.44;4886322;28;98130;-71
2023/07/17 04:50:50;;;;;;;;;;;;;;;20.98;33.66;100742.16;4885773;28;97974;-76
2023/07/17 04:53:17;;;;;;;;;;;;;;;21.07;33.78;100742.94;4872789;28;98318;-71
2023/07/17 04:55:46;;;;;;;;;;;;;;;21.15;33.75;100758.50;4865906;28;98335;-71
2023/07/17 04:58:12;;;;;;;;;;;;;;;21.23;33.76;100762.34;4903177;28;98220;-75
2023/07/17 05:00:42;;;;;;;;;;;;;;;21.27;33.74;100766.03;4885709;28;98430;-71
2023/07/17 05:03:09;;;;;;;;;;;;;;;21.39;33.70;100748.88;4886097;28;97978;-71
2023/07/17 05:05:36;;;;;;;;;;;;;;;21.45;33.60;100751.06;4885164;28;99469;-75
2023/07/17 05:08:04;;;;;;;;;;;;;;;21.51;33.70;100748.94;4922071;28;97888;-75
2023/07/17 05:10:30;;;;;;;;;;;;;;;21.62;33.49;100750.16;4923293;28;99327;-76
2023/07/17 05:12:58;;;;;;;;;;;;;;;21.74;33.47;100755.69;4894205;28;98158;-72
2023/07/17 05:15:25;;;;;;;;;;;;;;;21.91;33.37;100748.47;4923805;28;98094;-75
2023/07/17 05:17:52;;;;;;;;;;;;;;;21.98;33.39;100749.50;4906012;28;98205;-75
2023/07/17 05:20:19;;;;;;;;;;;;;;;22.11;33.27;100752.31;4905848;28;98064;-75
2023/07/17 05:22:46;;;;;;;;;;;;;;;22.18;33.48;100750.63;4904275;28;98354;-75
2023/07/17 05:25:12;;;;;;;;;;;;;;;22.41;33.23;100753.78;4891492;28;100324;-71
2023/07/17 05:27:38;;;;;;;;;;;;;;;22.52;33.18;100754.97;4909543;28;98305;-73
2023/07/17 05:30:06;;;;;;;;;;;;;;;22.71;33.10;100759.09;4907886;28;98030;-75
2023/07/17 05:32:33;;;;;;;;;;;;;;;23.00;32.95;100758.09;4907167;28;98192;-73
2023/07/17 05:35:00;;;;;;;;;;;;;;;23.35;32.71;100750.16;4891796;28;100271;-77
2023/07/17 05:37:27;;;;;;;;;;;;;;;23.44;32.73;100750.81;4908004;28;99181;-73
2023/07/17 05:39:53;;;;;;;;;;;;;;;23.33;33.02;100755.19;4907535;28;98068;-73
2023/07/17 05:42:20;;;;;;;;;;;;;;;23.46;32.88;100748.53;4904325;28;98277;-74
2023/07/17 05:44:48;;;;;;;;;;;;;;;23.92;32.53;100749.09;4890149;28;98000;-77
2023/07/17 05:47:14;;;;;;;;;;;;;;;23.90;32.88;100756.91;4905419;28;97995;-73
2023/07/17 05:49:41;;;;;;;;;;;;;;;23.83;32.81;100759.47;4925645;28;98427;-73
2023/07/17 05:52:08;;;;;;;;;;;;;;;24.21;32.57;100763.66;4887775;28;98097;-77
2023/07/17 05:54:34;;;;;;;;;;;;;;;24.54;32.73;100763.38;4909351;28;97976;-73
2023/07/17 05:57:01;;;;;;;;;;;;;;;24.86;32.39;100750.38;4891201;28;98042;-77
2023/07/17 05:59:28;;;;;;;;;;;;;;;25.28;32.14;100757.28;4939046;28;98072;-77
2023/07/17 06:01:54;;;;;;;;;;;;;;;25.81;32.28;100752.13;4925523;28;98005;-73
2023/07/17 06:04:20;;;;;;;;;;;;;;;26.19;32.05;100756.81;4911270;28;98449;-77
2023/07/17 06:06:46;;;;;;;;;;;;;;;26.22;32.33;100763.56;4886422;28;98007;-73
2023/07/17 06:09:13;;;;;;;;;;;;;;;26.22;32.31;100771.88;4903286;28;98453;-74
2023/07/17 06:11:39;;;;;;;;;;;;;;;26.60;32.09;100763.47;4904762;28;97924;-75
2023/07/17 06:14:06;;;;;;;;;;;;;;;27.19;31.87;100768.78;4893286;28;99449;-74
2023/07/17 06:16:32;;;;;;;;;;;;;;;27.54;31.84;100766.50;4919419;28;98177;-78
2023/07/17 06:18:59;;;;;;;;;;;;;;;28.44;31.19;100767.56;4908699;28;98142;-77
2023/07/17 06:21:27;;;;;;;;;;;;;;;29.16;31.10;100757.84;4906858;28;99841;-74
2023/07/17 06:23:54;;;;;;;;;;;;;;;30.02;30.40;100759.84;4908143;28;100603;-75
2023/07/17 06:26:21;;;;;;;;;;;;;;;30.30;30.60;100752.78;4923038;28;99656;-73
2023/07/17 06:28:49;;;;;;;;;;;;;;;30.52;31.10;100762.75;4921714;28;98025;-77
2023/07/17 06:31:16;;;;;;;;;;;;;;;31.28;30.51;100757.94;4890485;28;97938;-74
2023/07/17 06:33:43;;;;;;;;;;;;;;;32.01;30.27;100760.88;4909443;28;98151;-74
2023/07/17 06:36:10;;;;;;;;;;;;;;;32.58;30.08;100761.69;4896788;28;98502;-77
2023/07/17 06:38:36;;;;;;;;;;;;;;;33.46;29.99;100762.09;4899313;28;98040;-75
2023/07/17 06:41:04;;;;;;;;;;;;;;;34.13;29.86;100776.41;4909862;28;100152;-77
2023/07/17 06:43:30;;;;;;;;;;;;;;;35.53;29.16;100775.66;4922425;28;98736;-72
2023/07/17 06:45:57;;;;;;;;;;;;;;;36.46;28.52;100776.41;4922900;28;98237;-72
2023/07/17 06:48:24;;;;;;;;;;;;;;;37.77;28.10;100767.72;4890745;28;97913;-72
2023/07/17 06:50:51;;;;;;;;;;;;;;;38.36;27.53;100771.94;4918227;28;98227;-76
2023/07/17 06:53:18;;;;;;;;;;;;;;;37.08;28.54;100765.25;4885392;28;98169;-72
2023/07/17 06:55:45;;;;;;;;;;;;;;;36.49;28.91;100763.53;4905511;28;98357;-72
2023/07/17 06:58:11;;;;;;;;;;;;;;;36.26;28.88;100758.84;4889479;28;98058;-72
2023/07/17 07:00:38;;;;;;;;;;;;;;;36.04;29.18;100764.16;4882983;28;99298;-73
2023/07/17 07:03:05;;;;;;;;;;;;;;;35.95;29.25;100764.72;4902849;28;98565;-75
2023/07/17 07:05:31;;;;;;;;;;;;;;;35.90;29.41;100759.66;4900380;28;98393;-76
2023/07/17 07:07:57;;;;;;;;;;;;;;;35.81;29.51;100768.66;4903174;28;98075;-72
2023/07/17 07:10:24;;;;;;;;;;;;;;;35.92;29.48;100768.41;4916996;28;98462;-74
2023/07/17 07:12:51;;;;;;;;;;;;;;;36.09;29.35;100758.84;4909554;28;98131;-74
2023/07/17 07:15:18;;;;;;;;;;;;;;;36.50;29.07;100756.69;4903923;28;98157;-74
2023/07/17 07:17:45;;;;;;;;;;;;;;;36.85;28.74;100761.38;4888024;28;98128;-74
2023/07/17 07:20:13;;;;;;;;;;;;;;;37.03;28.75;100763.75;4905882;28;97864;-73
2023/07/17 07:22:42;;;;;;;;;;;;;;;37.14;28.68;100759.84;4906285;28;98047;-73
2023/07/17 07:25:08;;;;;;;;;;;;;;;37.49;28.95;100760.91;4922037;28;98074;-73
2023/07/17 07:27:34;;;;;;;;;;;;;;;37.83;28.78;100765.91;4901116;28;98373;-73
2023/07/17 07:30:01;;;;;;;;;;;;;;;38.12;28.42;100773.50;4907458;28;98188;-73
2023/07/17 07:32:28;;;;;;;;;;;;;;;38.32;27.88;100774.06;4919951;28;98547;-73
2023/07/17 07:34:54;;;;;;;;;;;;;;;38.51;28.08;100772.25;4920557;28;98068;-72
2023/07/17 07:37:20;;;;;;;;;;;;;;;38.58;28.67;100776.84;4905701;28;97880;-73
2023/07/17 07:39:46;;;;;;;;;;;;;;;38.73;28.00;100775.91;4906460;28;98365;-72
2023/07/17 07:42:13;;;;;;;;;;;;;;;38.99;28.30;100778.69;4921059;28;98140;-72
2023/07/17 07:44:39;;;;;;;;;;;;;;;39.33;28.35;100775.06;4919752;28;98629;-71
2023/07/17 07:47:05;;;;;;;;;;;;;;;39.71;28.10;100774.09;4921652;28;98317;-75
2023/07/17 07:49:32;;;;;;;;;;;;;;;40.02;27.88;100764.84;4909101;28;98024;-73
2023/07/17 07:51:58;;;;;;;;;;;;;;;40.20;27.67;100779.81;4901897;28;99874;-73
2023/07/17 07:54:25;;;;;;;;;;;;;;;40.53;27.66;100770.03;4897114;28;98365;-72
2023/07/17 07:56:51;;;;;;;;;;;;;;;40.94;27.44;100774.31;4887124;28;98417;-75
2023/07/17 07:59:18;;;;;;;;;;;;;;;41.39;27.45;100775.59;4899361;28;100312;-72
2023/07/17 08:01:44;;;;;;;;;;;;;;;41.90;26.87;100772.06;4907700;28;98111;-73
2023/07/17 08:04:11;;;;;;;;;;;;;;;42.32;27.09;100776.91;4919637;28;98166;-72
2023/07/17 08:06:37;;;;;;;;;;;;;;;42.60;27.04;100772.66;4921629;28;97851;-73
2023/07/17 08:09:04;;;;;;;;;;;;;;;43.11;26.73;100765.97;4903081;28;98158;-72
2023/07/17 08:11:31;;;;;;;;;;;;;;;43.48;26.14;100768.47;4906043;28;98346;-73
2023/07/17 08:13:57;;;;;;;;;;;;;;;43.82;26.01;100769.03;4918388;28;98139;-72
2023/07/17 08:16:23;;;;;;;;;;;;;;;44.28;26.20;100774.16;4906514;28;114539;-73
2023/07/17 08:18:50;;;;;;;;;;;;;;;44.72;25.92;100776.81;4922422;28;101219;-73
2023/07/17 08:21:16;;;;;;;;;;;;;;;45.30;25.69;100760.69;4900114;28;98034;-72
2023/07/17 08:23:45;;;;;;;;;;;;;;;45.77;25.57;100755.69;4919237;28;98318;-76
2023/07/17 08:26:12;;;;;;;;;;;;;;;46.13;25.35;100756.19;4884927;28;100207;-71
2023/07/17 08:28:39;;;;;;;;;;;;;;;46.30;25.28;100770.59;4924145;28;98199;-77
2023/07/17 08:31:06;;;;;;;;;;;;;;;46.38;25.03;100763.13;4902814;28;98763;-74
2023/07/17 08:33:33;;;;;;;;;;;;;;;46.69;25.13;100769.97;4889588;28;98417;-76
2023/07/17 08:36:00;;;;;;;;;;;;;;;46.40;24.91;100763.38;4880088;28;98157;-71
2023/07/17 08:38:26;;;;;;;;;;;;;;;46.66;24.83;100760.41;4889220;28;98393;-71
2023/07/17 08:40:53;;;;;;;;;;;;;;;47.02;24.68;100757.94;4922424;28;98193;-76
2023/07/17 08:43:22;;;;;;;;;;;;;;;46.64;25.01;100762.19;4922015;28;98923;-72
2023/07/17 08:45:50;;;;;;;;;;;;;;;47.14;24.60;100753.81;4906795;28;98922;-73
2023/07/17 08:48:16;;;;;;;;;;;;;;;46.56;25.38;100756.19;4900994;28;98093;-74
2023/07/17 08:50:43;;;;;;;;;;;;;;;47.59;24.84;100753.84;4924450;28;99983;-73
2023/07/17 08:53:09;;;;;;;;;;;;;;;48.36;24.42;100764.91;4904486;28;99474;-73
2023/07/17 08:55:35;;;;;;;;;;;;;;;48.66;24.21;100760.13;4885966;28;99989;-73
2023/07/17 08:58:03;;;;;;;;;;;;;;;48.89;24.29;100760.03;4893976;28;98010;-71
2023/07/17 09:00:30;;;;;;;;;;;;;;;49.36;23.97;100771.41;4906036;28;98133;-73
2023/07/17 09:02:56;;;;;;;;;;;;;;;49.71;23.84;100759.19;4891366;28;98470;-74
2023/07/17 09:05:23;;;;;;;;;;;;;;;46.13;26.36;100738.34;4900989;28;98999;-67
2023/07/17 09:07:50;;;;;;;;;;;;;;;48.10;24.82;100756.69;4912496;28;98056;-74
2023/07/17 09:10:20;;;;;;;;;;;;;;;48.29;24.69;100754.81;4906948;28;98551;-66
2023/07/17 09:13:04;;;;;;;;;;;;;;;49.06;24.37;100754.97;4923340;28;98147;-74
2023/07/17 09:15:32;;;;;;;;;;;;;;;49.08;24.51;100765.88;4921941;28;98869;-74
2023/07/17 09:17:58;;;;;;;;;;;;;;;47.32;25.42;100751.78;4887286;28;103135;-74
2023/07/17 09:20:25;;;;;;;;;;;;;;;47.87;25.27;100747.34;4921907;28;98624;-68
2023/07/17 09:22:56;;;;;;;;;;;;;;;48.73;24.45;100747.34;4909851;28;97931;-70
2023/07/17 09:25:24;;;;;;;;;;;;;;;48.45;24.93;100752.44;4905129;28;98012;-71
2023/07/17 09:27:51;;;;;;;;;;;;;;;47.74;25.04;100759.31;4923620;28;99790;-70
2023/07/17 09:30:22;;;;;;;;;;;;;;;47.18;25.80;100745.78;4900496;28;98043;-70
2023/07/17 09:32:49;;;;;;;;;;;;;;;46.46;26.07;100749.94;4923583;28;98243;-71
2023/07/17 09:35:22;;;;;;;;;;;;;;;46.71;25.97;100739.69;4908298;28;98567;-71
2023/07/17 09:37:49;;;;;;;;;;;;;;;47.09;25.60;100748.88;4907020;28;98464;-72
2023/07/17 09:40:17;;;;;;;;;;;;;;;47.80;25.33;100745.06;4906085;28;98294;-71
2023/07/17 09:42:51;;;;;;;;;;;;;;;48.18;24.89;100741.31;4907591;28;98090;-72
2023/07/17 09:45:18;;;;;;;;;;;;;;;49.07;24.52;100738.59;4905851;28;97754;-72
2023/07/17 09:47:45;;;;;;;;;;;;;;;45.42;26.88;100735.19;4921442;28;97970;-72
2023/07/17 09:50:13;;;;;;;;;;;;;;;45.53;26.12;100735.31;4906148;28;98290;-73
2023/07/17 09:52:39;;;;;;;;;;;;;;;47.40;24.85;100739.34;4904780;28;98146;-73
2023/07/17 09:55:07;;;;;;;;;;;;;;;46.78;25.31;100729.09;4885807;28;100084;-72
2023/07/17 09:57:38;;;;;;;;;;;;;;;47.95;24.90;100736.94;4887460;28;98130;-72
2023/07/17 10:00:18;;;;;;;;;;;;;;;48.87;24.10;100726.25;4919225;28;99031;-72
2023/07/17 10:03:10;;;;;;;;;;;;;;;45.34;26.54;100717.03;4916669;28;98226;-73
2023/07/17 10:05:37;;;;;;;;;;;;;;;46.47;25.75;100727.94;4886499;28;125199;-73
2023/07/17 10:08:11;;;;;;;;;;;;;;;46.26;25.73;100719.56;4918949;28;98285;-73
2023/07/17 10:10:38;;;;;;;;;;;;;;;43.81;27.15;100722.06;4922580;28;98092;-73
2023/07/17 10:13:05;;;;;;;;;;;;;;;44.01;26.83;100718.53;4880854;28;98380;-73
2023/07/17 10:15:32;;;;;;;;;;;;;;;45.38;26.07;100724.03;4916868;28;99691;-71
2023/07/17 10:17:58;;;;;;;;;;;;;;;42.62;27.75;100721.94;4880672;28;98200;-71
2023/07/17 10:20:26;;;;;;;;;;;;;;;42.29;27.78;100724.06;4879701;28;98565;-72
2023/07/17 10:22:53;;;;;;;;;;;;;;;44.40;26.10;100727.59;4917353;28;98433;-73
2023/07/17 10:25:19;;;;;;;;;;;;;;;45.79;25.00;100733.19;4900111;28;99392;-70
2023/07/17 10:27:46;;;;;;;;;;;;;;;46.47;24.75;100728.69;4932541;28;98368;-74
2023/07/17 10:30:28;;;;;;;;;;;;;;;46.84;24.92;100724.94;4935119;28;97862;-71
2023/07/17 10:33:11;;;;;;;;;;;;;;;47.33;24.51;100713.41;4902387;28;98138;-71
2023/07/17 10:35:53;;;;;;;;;;;;;;;47.81;24.38;100715.19;4895429;28;98181;-72
2023/07/17 10:38:27;;;;;;;;;;;;;;;48.35;24.17;100726.22;4919255;28;99215;-72
2023/07/17 10:41:12;;;;;;;;;;;;;;;47.15;25.07;100714.66;4898237;28;98404;-73
2023/07/17 10:43:51;;;;;;;;;;;;;;;46.75;25.13;100713.78;4918453;28;98100;-71
2023/07/17 10:46:19;;;;;;;;;;;;;;;47.65;24.84;100706.13;4904655;28;97884;-72
2023/07/17 10:48:45;;;;;;;;;;;;;;;48.31;24.32;100715.06;4903386;28;98311;-72
2023/07/17 10:51:11;;;;;;;;;;;;;;;48.60;24.30;100718.59;4882770;28;100417;-72
2023/07/17 10:53:38;;;;;;;;;;;;;;;48.69;24.35;100709.69;4904768;28;98224;-72
2023/07/17 10:56:04;;;;;;;;;;;;;;;46.58;25.74;100690.19;4883777;28;98521;-73
2023/07/17 10:58:31;;;;;;;;;;;;;;;47.57;24.91;100687.19;4888500;28;98388;-73
2023/07/17 11:00:58;;;;;;;;;;;;;;;48.23;24.40;100699.78;4884428;28;98090;-72
2023/07/17 11:03:26;;;;;;;;;;;;;;;48.52;24.38;100683.31;4884382;28;98448;-74
2023/07/17 11:05:55;;;;;;;;;;;;;;;48.27;24.40;100690.94;4916258;28;98195;-73
2023/07/17 11:08:23;;;;;;;;;;;;;;;48.10;24.63;100677.50;4902494;28;98246;-73
2023/07/17 11:10:50;;;;;;;;;;;;;;;48.59;24.30;100682.75;4885294;28;99640;-73
2023/07/17 11:13:16;;;;;;;;;;;;;;;48.53;24.22;100677.06;4896500;28;98177;-73
2023/07/17 11:15:42;;;;;;;;;;;;;;;48.52;24.52;100678.38;4917817;28;98121;-72
2023/07/17 11:18:09;;;;;;;;;;;;;;;45.43;26.65;100671.38;4916892;28;99303;-72
2023/07/17 11:20:35;;;;;;;;;;;;;;;45.37;26.34;100670.53;4899909;28;100014;-71
2023/07/17 11:23:03;;;;;;;;;;;;;;;46.10;25.69;100673.88;4902845;28;98554;-72
2023/07/17 11:25:30;;;;;;;;;;;;;;;46.92;25.20;100677.53;4918221;28;98470;-72
2023/07/17 11:27:58;;;;;;;;;;;;;;;46.86;25.08;100673.91;4901570;28;98099;-72
2023/07/17 11:30:34;;;;;;;;;;;;;;;47.05;25.13;100670.59;4915563;28;98243;-72
2023/07/17 11:33:05;;;;;;;;;;;;;;;47.04;24.90;100672.66;4916314;28;97997;-70
2023/07/17 11:35:50;;;;;;;;;;;;;;;46.87;24.97;100672.63;4879164;28;98874;-72
2023/07/17 11:38:19;;;;;;;;;;;;;;;46.62;25.30;100667.91;4883600;28;98146;-71
2023/07/17 11:40:55;;;;;;;;;;;;;;;46.26;25.36;100661.81;4879217;28;100088;-71
2023/07/17 11:43:31;;;;;;;;;;;;;;;43.62;27.27;100659.13;4913968;28;98757;-72
2023/07/17 11:46:01;;;;;;;;;;;;;;;44.49;26.73;100667.84;4900602;28;98311;-72
2023/07/17 11:48:28;;;;;;;;;;;;;;;44.49;26.27;100670.66;4905832;28;98334;-71
2023/07/17 11:50:56;;;;;;;;;;;;;;;44.30;26.51;100652.38;4883435;28;98234;-71
2023/07/17 11:53:22;;;;;;;;;;;;;;;44.28;26.40;100658.53;4900027;28;98243;-71
2023/07/17 11:55:50;;;;;;;;;;;;;;;44.32;26.47;100646.97;4858815;28;99204;-71
2023/07/17 11:58:17;;;;;;;;;;;;;;;43.68;26.98;100659.22;4916707;28;98507;-72
2023/07/17 12:00:43;;;;;;;;;;;;;;;42.90;27.38;100657.34;4912092;28;99215;-73
2023/07/17 12:03:10;;;;;;;;;;;;;;;43.32;26.77;100658.38;4853959;28;99310;-72
2023/07/17 12:05:36;;;;;;;;;;;;;;;42.52;27.35;100651.69;4883760;28;98108;-71
2023/07/17 12:08:03;;;;;;;;;;;;;;;42.94;26.64;100657.16;4900415;28;102920;-72
2023/07/17 12:10:30;;;;;;;;;;;;;;;43.08;26.46;100645.09;4877179;28;98116;-71
2023/07/17 12:12:57;;;;;;;;;;;;;;;41.69;27.51;100638.06;4900445;28;99973;-72
2023/07/17 12:15:24;;;;;;;;;;;;;;;40.76;28.03;100647.22;4907361;28;98604;-71
2023/07/17 12:17:50;;;;;;;;;;;;;;;40.85;27.74;100645.19;4887465;28;99771;-71
2023/07/17 12:20:18;;;;;;;;;;;;;;;40.58;27.82;100645.19;4918329;28;98799;-70
2023/07/17 12:22:46;;;;;;;;;;;;;;;40.29;27.93;100652.06;4924524;28;98427;-71
2023/07/17 12:25:12;;;;;;;;;;;;;;;39.33;28.42;100636.97;4901955;28;98037;-71
2023/07/17 12:27:38;;;;;;;;;;;;;;;38.67;28.49;100631.31;4879631;28;99406;-71
2023/07/17 12:30:05;;;;;;;;;;;;;;;38.01;29.08;100638.84;4899685;28;99760;-71
2023/07/17 12:32:31;;;;;;;;;;;;;;;37.74;28.57;100637.25;4890981;28;98142;-71
2023/07/17 12:34:58;;;;;;;;;;;;;;;39.01;27.59;100636.13;4881773;28;99504;-70
2023/07/17 12:37:24;;;;;;;;;;;;;;;39.55;27.38;100630.50;4881648;28;99337;-70